Bituruna, Brazil
Current Conditions -  °F | °C
As of 10:00 PM on Friday 19 Dec 2014 (Local Time) from SBCH Reporting Station
Clear Clear  
Wind Chill: 26°   Ceiling: Unl
Heat Index: 27°   Visibility: 6mi
Dew Point: 19°   Wind: 0mph
Humidity: 65%   Direction: NA
Pressure: 29.77"   Gusts: NA
Location:  26.16°S, 51.55°W
Report Text: SBCH 200000Z 00000KT CAVOK 26/19 Q1008
Loading
Personal Weather Stations






























Interactive Weather Map New forecast layout! Learn more

10-Day Weather Forecast

Advertisements
Track Severe Weather on mobile